createdAt,value
2023-04-16T00:01:27.409Z,99831.34
2023-04-16T00:03:54.821Z,99832.97
2023-04-16T00:06:23.256Z,99833.94
2023-04-16T00:08:50.360Z,99838.19
2023-04-16T00:11:17.252Z,99837.41
2023-04-16T00:13:43.800Z,99849.22
2023-04-16T00:16:10.689Z,99840.75
2023-04-16T00:18:37.268Z,99833.84
2023-04-16T00:21:03.998Z,99839.16
2023-04-16T00:23:30.552Z,99843.31
2023-04-16T00:26:00.008Z,99837.19
2023-04-16T00:28:27.691Z,99846.78
2023-04-16T00:30:55.028Z,99833.75
2023-04-16T00:33:21.777Z,99854.34
2023-04-16T00:35:48.895Z,99856.09
2023-04-16T00:38:15.847Z,99852.63
2023-04-16T00:40:42.603Z,99856.06
2023-04-16T00:43:09.204Z,99857.00
2023-04-16T00:45:36.463Z,99863.00
2023-04-16T00:48:03.223Z,99856.06
2023-04-16T00:50:30.015Z,99867.22
2023-04-16T00:52:56.855Z,99849.94
2023-04-16T00:55:23.509Z,99855.34
2023-04-16T00:57:50.029Z,99846.78
2023-04-16T01:00:16.844Z,99856.09
2023-04-16T01:02:43.610Z,99851.72
2023-04-16T01:05:10.288Z,99853.50
2023-04-16T01:07:36.832Z,99854.44
2023-04-16T01:10:04.138Z,99865.56
2023-04-16T01:12:30.674Z,99852.63
2023-04-16T01:14:57.370Z,99857.03
2023-04-16T01:17:24.094Z,99848.41
2023-04-16T01:19:50.922Z,99857.84
2023-04-16T01:22:17.545Z,99843.19
2023-04-16T01:24:45.030Z,99852.75
2023-04-16T01:27:11.545Z,99859.63
2023-04-16T01:29:38.135Z,99857.94
2023-04-16T01:32:04.746Z,99866.50
2023-04-16T01:34:31.297Z,99857.06
2023-04-16T01:36:57.827Z,99856.28
2023-04-16T01:39:24.398Z,99855.34
2023-04-16T01:41:50.919Z,99858.81
2023-04-16T01:44:17.498Z,99865.66
2023-04-16T01:46:45.082Z,99860.44
2023-04-16T01:49:11.928Z,99863.88
2023-04-16T01:51:38.676Z,99858.00
2023-04-16T01:54:05.473Z,99844.00
2023-04-16T01:56:31.985Z,99860.44
2023-04-16T01:58:58.493Z,99854.38
2023-04-16T02:01:25.434Z,99852.75
2023-04-16T02:03:53.133Z,99858.63
2023-04-16T02:06:19.871Z,99857.13
2023-04-16T02:08:46.542Z,99857.00
2023-04-16T02:11:13.042Z,99859.69
2023-04-16T02:13:39.541Z,99858.63
2023-04-16T02:16:06.451Z,99863.03
2023-04-16T02:18:33.096Z,99869.69
2023-04-16T02:21:00.335Z,99859.28
2023-04-16T02:23:27.024Z,99869.75
2023-04-16T02:25:53.588Z,99871.53
2023-04-16T02:28:20.204Z,99876.50
2023-04-16T02:30:46.765Z,99867.28
2023-04-16T02:33:13.333Z,99870.78
2023-04-16T02:35:40.610Z,99877.44
2023-04-16T02:38:07.897Z,99878.03
2023-04-16T02:40:34.439Z,99882.53
2023-04-16T02:43:01.141Z,99869.69
2023-04-16T02:45:27.930Z,99884.28
2023-04-16T02:47:54.571Z,99887.72
2023-04-16T02:50:21.246Z,99893.75
2023-04-16T02:52:48.534Z,99892.03
2023-04-16T02:55:15.124Z,99898.03
2023-04-16T02:57:42.489Z,99899.84
2023-04-16T03:00:09.881Z,99904.81
2023-04-16T03:02:36.562Z,99904.84
2023-04-16T03:05:03.688Z,99902.31
2023-04-16T03:07:30.442Z,99897.94
2023-04-16T03:09:57.241Z,99914.31
2023-04-16T03:12:23.818Z,99906.53
2023-04-16T03:14:53.533Z,99912.53
2023-04-16T03:17:20.100Z,99917.75
2023-04-16T03:19:46.664Z,99913.44
2023-04-16T03:22:13.301Z,99910.78
2023-04-16T03:24:39.826Z,99922.00
2023-04-16T03:27:06.395Z,99920.28
2023-04-16T03:29:33.114Z,99926.34
2023-04-16T03:31:59.696Z,99929.63
2023-04-16T03:34:26.618Z,99924.56
2023-04-16T03:36:53.198Z,99936.56
2023-04-16T03:39:19.730Z,99935.78
2023-04-16T03:41:46.348Z,99934.03
2023-04-16T03:44:13.007Z,99930.53
2023-04-16T03:46:39.705Z,99937.47
2023-04-16T03:49:06.287Z,99939.22
2023-04-16T03:51:33.029Z,99940.84
2023-04-16T03:53:59.673Z,99936.72
2023-04-16T03:56:26.247Z,99936.81
2023-04-16T03:58:52.831Z,99923.91
2023-04-16T04:01:19.375Z,99936.03
2023-04-16T04:03:46.093Z,99937.78
2023-04-16T04:06:12.841Z,99931.75
2023-04-16T04:08:39.369Z,99927.47
2023-04-16T04:11:06.018Z,99937.88
2023-04-16T04:13:32.585Z,99926.50
2023-04-16T04:15:59.177Z,99939.53
2023-04-16T04:18:25.722Z,99931.84
2023-04-16T04:20:52.504Z,99926.84
2023-04-16T04:23:19.120Z,99932.88
2023-04-16T04:25:45.947Z,99943.19
2023-04-16T04:28:12.602Z,99933.78
2023-04-16T04:30:39.202Z,99945.75
2023-04-16T04:33:06.312Z,99946.66
2023-04-16T04:35:33.403Z,99938.13
2023-04-16T04:37:59.932Z,99950.03
2023-04-16T04:40:26.469Z,99950.03
2023-04-16T04:42:53.033Z,99944.75
2023-04-16T04:45:19.693Z,99956.78
2023-04-16T04:47:46.291Z,99949.91
2023-04-16T04:50:12.903Z,99948.31
2023-04-16T04:52:39.447Z,99954.16
2023-04-16T04:55:06.357Z,99954.28
2023-04-16T04:57:32.965Z,99950.59
2023-04-16T04:59:59.562Z,99959.44
2023-04-16T05:02:26.219Z,99961.06
2023-04-16T05:04:52.863Z,99960.06
2023-04-16T05:07:19.466Z,99966.09
2023-04-16T05:09:46.058Z,99968.84
2023-04-16T05:12:12.633Z,99969.72
2023-04-16T05:14:39.152Z,99976.63
2023-04-16T05:17:06.108Z,99970.47
2023-04-16T05:19:32.697Z,99972.31
2023-04-16T05:21:59.707Z,99984.38
2023-04-16T05:24:26.242Z,99981.81
2023-04-16T05:26:52.816Z,99980.13
2023-04-16T05:29:19.394Z,99976.81
2023-04-16T05:31:46.165Z,99972.53
2023-04-16T05:34:12.786Z,99974.22
2023-04-16T05:36:39.320Z,99987.25
2023-04-16T05:39:06.044Z,99983.03
2023-04-16T05:41:32.714Z,99987.31
2023-04-16T05:43:59.281Z,99989.97
2023-04-16T05:46:25.978Z,99993.47
2023-04-16T05:48:52.622Z,99997.78
2023-04-16T05:51:19.486Z,99994.44
2023-04-16T05:53:46.024Z,100005.41
2023-04-16T05:56:12.627Z,99996.91
2023-04-16T05:58:39.136Z,100007.16
2023-04-16T06:01:05.673Z,100008.00
2023-04-16T06:03:32.294Z,100008.97
2023-04-16T06:05:58.966Z,100014.97
2023-04-16T06:08:25.643Z,100008.97
2023-04-16T06:10:52.254Z,100016.72
2023-04-16T06:13:18.842Z,100016.72
2023-04-16T06:15:45.462Z,100016.78
2023-04-16T06:18:12.124Z,100019.56
2023-04-16T06:20:38.764Z,100014.44
2023-04-16T06:23:05.496Z,100026.44
2023-04-16T06:25:32.119Z,100019.56
2023-04-16T06:27:58.712Z,100026.69
2023-04-16T06:30:25.571Z,100021.66
2023-04-16T06:32:53.012Z,100035.47
2023-04-16T06:35:20.310Z,100028.63
2023-04-16T06:37:47.139Z,100029.56
2023-04-16T06:40:13.782Z,100032.28
2023-04-16T06:42:40.369Z,100041.00
2023-04-16T06:45:07.654Z,100047.94
2023-04-16T06:47:34.306Z,100033.50
2023-04-16T06:50:00.832Z,100041.34
2023-04-16T06:52:27.458Z,100039.69
2023-04-16T06:54:54.041Z,100043.94
2023-04-16T06:57:20.651Z,100042.16
2023-04-16T06:59:47.197Z,100044.91
2023-04-16T07:02:13.890Z,100052.50
2023-04-16T07:04:40.755Z,100047.50
2023-04-16T07:07:07.309Z,100053.59
2023-04-16T07:09:34.073Z,100051.00
2023-04-16T07:12:00.952Z,100046.00
2023-04-16T07:14:27.528Z,100051.16
2023-04-16T07:16:54.205Z,100046.00
2023-04-16T07:19:21.081Z,100052.06
2023-04-16T07:21:47.737Z,100054.56
2023-04-16T07:24:14.363Z,100051.88
2023-04-16T07:26:41.015Z,100049.44
2023-04-16T07:29:07.820Z,100051.47
2023-04-16T07:31:34.590Z,100057.44
2023-04-16T07:34:01.260Z,100055.16
2023-04-16T07:36:28.434Z,100049.13
2023-04-16T07:38:56.102Z,100050.31
2023-04-16T07:41:22.744Z,100053.09
2023-04-16T07:43:49.325Z,100057.38
2023-04-16T07:46:16.262Z,100048.88
2023-04-16T07:48:43.091Z,100042.38
2023-04-16T07:51:09.780Z,100046.97
2023-04-16T07:53:36.543Z,100037.53
2023-04-16T07:56:03.112Z,100026.53
2023-04-16T07:58:29.627Z,100043.88
2023-04-16T08:00:56.366Z,100047.13
2023-04-16T08:03:23.169Z,100050.59
2023-04-16T08:05:49.985Z,100051.44
2023-04-16T08:08:16.586Z,100057.63
2023-04-16T08:10:43.192Z,100053.91
2023-04-16T08:13:09.737Z,100061.47
2023-04-16T08:15:36.575Z,100054.31
2023-04-16T08:18:03.239Z,100051.19
2023-04-16T08:20:29.836Z,100050.50
2023-04-16T08:22:56.383Z,100047.81
2023-04-16T08:25:24.676Z,100048.31
2023-04-16T08:27:51.239Z,100054.75
2023-04-16T08:30:17.896Z,100059.88
2023-04-16T08:32:44.543Z,100054.94
2023-04-16T08:35:11.170Z,100052.69
2023-04-16T08:37:38.771Z,100054.41
2023-04-16T08:40:05.789Z,100051.41
2023-04-16T08:42:44.841Z,100056.63
2023-04-16T08:45:16.705Z,100060.91
2023-04-16T08:47:47.895Z,100054.94
2023-04-16T08:50:16.338Z,100059.44
2023-04-16T08:52:53.414Z,100062.94
2023-04-16T08:55:26.402Z,100059.56
2023-04-16T08:57:57.591Z,100063.91
2023-04-16T09:00:24.371Z,100057.09
2023-04-16T09:02:51.929Z,100067.34
2023-04-16T09:05:20.752Z,100061.66
2023-04-16T09:07:48.517Z,100057.38
2023-04-16T09:10:16.116Z,100066.03
2023-04-16T09:12:43.702Z,100052.31
2023-04-16T09:15:11.858Z,100051.72
2023-04-16T09:17:39.450Z,100058.72
2023-04-16T09:20:11.058Z,100066.78
2023-04-16T09:22:38.396Z,100060.47
2023-04-16T09:25:05.543Z,100057.84
2023-04-16T09:27:32.272Z,100068.91
2023-04-16T09:29:59.138Z,100073.03
2023-04-16T09:32:27.836Z,100060.09
2023-04-16T09:34:59.140Z,100070.66
2023-04-16T09:37:29.579Z,100074.06
2023-04-16T09:40:01.386Z,100085.25
2023-04-16T09:42:30.968Z,100090.09
2023-04-16T09:45:00.802Z,100089.25
2023-04-16T09:47:43.196Z,100082.09
2023-04-16T09:50:17.287Z,100094.06
2023-04-16T09:52:48.490Z,100092.09
2023-04-16T09:55:15.420Z,100103.13
2023-04-16T09:57:41.976Z,100100.56
2023-04-16T10:00:10.388Z,100103.88
2023-04-16T10:02:41.773Z,100104.25
2023-04-16T10:05:09.202Z,100105.75
2023-04-16T10:07:37.349Z,100110.25
2023-04-16T10:10:05.104Z,100110.97
2023-04-16T10:12:32.909Z,100104.66
2023-04-16T10:14:59.783Z,100108.44
2023-04-16T10:17:29.907Z,100111.09
2023-04-16T10:19:57.933Z,100116.25
2023-04-16T10:22:24.521Z,100108.53
2023-04-16T10:24:51.729Z,100114.75
2023-04-16T10:27:19.818Z,100114.66
2023-04-16T10:29:46.911Z,100115.56
2023-04-16T10:32:14.316Z,100116.97
2023-04-16T10:34:41.327Z,100117.94
2023-04-16T10:37:07.878Z,100114.50
2023-04-16T10:39:37.530Z,100113.56
2023-04-16T10:42:09.088Z,100110.81
2023-04-16T10:44:36.185Z,100118.50
2023-04-16T10:47:03.089Z,100122.00
2023-04-16T10:49:29.693Z,100116.09
2023-04-16T10:51:57.330Z,100128.16
2023-04-16T10:54:27.712Z,100127.31
2023-04-16T10:56:57.022Z,100123.56
2023-04-16T10:59:25.239Z,100121.53
2023-04-16T11:01:58.498Z,100129.44
2023-04-16T11:04:25.337Z,100127.88
2023-04-16T11:07:04.321Z,100123.84
2023-04-16T11:09:47.297Z,100128.75
2023-04-16T11:12:27.847Z,100121.97
2023-04-16T11:15:11.412Z,100125.47
2023-04-16T11:17:50.497Z,100121.16
2023-04-16T11:20:25.583Z,100125.09
2023-04-16T11:22:54.645Z,100133.81
2023-04-16T11:25:23.084Z,100132.75
2023-04-16T11:27:51.190Z,100132.88
2023-04-16T11:30:18.753Z,100132.97
2023-04-16T11:32:45.690Z,100132.03
2023-04-16T11:35:17.477Z,100139.72
2023-04-16T11:37:45.195Z,100135.44
2023-04-16T11:40:12.543Z,100133.81
2023-04-16T11:42:40.924Z,100133.81
2023-04-16T11:45:09.453Z,100122.69
2023-04-16T11:47:53.367Z,100140.84
2023-04-16T11:50:28.296Z,100134.56
2023-04-16T11:52:57.786Z,100134.81
2023-04-16T11:55:24.564Z,100129.69
2023-04-16T11:57:51.974Z,100128.69
2023-04-16T12:00:19.149Z,100128.59
2023-04-16T12:02:55.494Z,100116.44
2023-04-16T12:05:37.754Z,100132.53
2023-04-16T12:08:10.601Z,100115.53
2023-04-16T12:10:52.852Z,100130.06
2023-04-16T12:13:19.759Z,100132.53
2023-04-16T12:15:48.355Z,100136.81
2023-04-16T12:18:16.331Z,100137.00
2023-04-16T12:20:44.482Z,100133.50
2023-04-16T12:23:22.093Z,100133.72
2023-04-16T12:25:50.106Z,100140.63
2023-04-16T12:28:31.313Z,100133.50
2023-04-16T12:30:58.155Z,100128.22
2023-04-16T12:33:25.125Z,100132.41
2023-04-16T12:35:52.487Z,100131.78
2023-04-16T12:38:19.329Z,100131.78
2023-04-16T12:40:46.133Z,100134.16
2023-04-16T12:43:12.707Z,100131.69
2023-04-16T12:45:40.451Z,100130.06
2023-04-16T12:48:07.212Z,100129.09
2023-04-16T12:50:33.765Z,100127.38
2023-04-16T12:53:00.449Z,100124.97
2023-04-16T12:55:27.024Z,100127.50
2023-04-16T12:57:54.644Z,100123.88
2023-04-16T13:00:21.890Z,100127.38
2023-04-16T13:02:48.669Z,100121.94
2023-04-16T13:05:16.649Z,100124.91
2023-04-16T13:07:43.521Z,100119.25
2023-04-16T13:10:10.569Z,100122.78
2023-04-16T13:12:37.261Z,100124.63
2023-04-16T13:15:04.347Z,100127.38
2023-04-16T13:17:31.231Z,100129.75
2023-04-16T13:19:57.789Z,100120.25
2023-04-16T13:22:24.513Z,100124.41
2023-04-16T13:24:51.077Z,100118.41
2023-04-16T13:27:17.956Z,100122.75
2023-04-16T13:29:44.900Z,100121.78
2023-04-16T13:32:13.710Z,100122.91
2023-04-16T13:34:40.333Z,100123.88
2023-04-16T13:37:06.901Z,100123.66
2023-04-16T13:39:33.692Z,100129.63
2023-04-16T13:42:00.363Z,100126.47
2023-04-16T13:44:26.899Z,100126.91
2023-04-16T13:46:53.594Z,100124.56
2023-04-16T13:49:20.265Z,100137.22
2023-04-16T13:51:46.806Z,100133.16
2023-04-16T13:54:13.368Z,100125.56
2023-04-16T13:56:40.875Z,100125.56
2023-04-16T13:59:08.083Z,100120.56
2023-04-16T14:01:34.995Z,100123.78
2023-04-16T14:04:06.411Z,100114.22
2023-04-16T14:06:34.487Z,100121.66
2023-04-16T14:09:01.554Z,100125.13
2023-04-16T14:11:28.485Z,100125.09
2023-04-16T14:13:55.505Z,100130.09
2023-04-16T14:16:22.216Z,100121.78
2023-04-16T14:18:48.820Z,100112.22
2023-04-16T14:21:15.671Z,100124.91
2023-04-16T14:23:42.216Z,100123.19
2023-04-16T14:26:08.797Z,100123.91
2023-04-16T14:28:35.802Z,100121.44
2023-04-16T14:31:02.499Z,100125.00
2023-04-16T14:33:29.272Z,100126.69
2023-04-16T14:35:56.038Z,100130.97
2023-04-16T14:38:22.717Z,100120.63
2023-04-16T14:40:49.418Z,100136.03
2023-04-16T14:43:16.000Z,100133.38
2023-04-16T14:45:42.573Z,100127.28
2023-04-16T14:48:09.381Z,100126.56
2023-04-16T14:50:37.927Z,100133.41
2023-04-16T14:53:07.429Z,100129.03
2023-04-16T14:55:34.066Z,100135.16
2023-04-16T14:58:00.802Z,100137.72
2023-04-16T15:00:27.619Z,100133.28
2023-04-16T15:02:57.749Z,100135.81
2023-04-16T15:05:24.570Z,100134.16
2023-04-16T15:07:51.237Z,100129.13
2023-04-16T15:10:17.955Z,100125.59
2023-04-16T15:12:44.462Z,100129.88
2023-04-16T15:15:11.325Z,100124.09
2023-04-16T15:17:37.942Z,100126.69
2023-04-16T15:20:08.185Z,100126.69
2023-04-16T15:22:35.195Z,100124.22
2023-04-16T15:25:02.053Z,100114.47
2023-04-16T15:27:28.616Z,100124.09
2023-04-16T15:29:55.409Z,100124.09
2023-04-16T15:32:22.159Z,100118.06
2023-04-16T15:34:48.887Z,100122.19
2023-04-16T15:37:16.059Z,100118.69
2023-04-16T15:39:42.743Z,100123.91
2023-04-16T15:42:09.339Z,100119.72
2023-04-16T15:44:36.326Z,100130.84
2023-04-16T15:47:02.939Z,100122.34
2023-04-16T15:49:29.482Z,100126.59
2023-04-16T15:51:56.426Z,100127.47
2023-04-16T15:54:23.584Z,100135.97
2023-04-16T15:56:50.425Z,100131.69
2023-04-16T15:59:17.014Z,100127.28
2023-04-16T16:01:43.641Z,100131.34
2023-04-16T16:04:10.455Z,100128.84
2023-04-16T16:06:38.190Z,100127.28
2023-04-16T16:09:05.010Z,100136.47
2023-04-16T16:11:32.661Z,100139.16
2023-04-16T16:14:01.438Z,100136.34
2023-04-16T16:16:28.550Z,100142.50
2023-04-16T16:18:55.655Z,100136.72
2023-04-16T16:21:22.248Z,100130.38
2023-04-16T16:23:48.883Z,100135.41
2023-04-16T16:26:15.435Z,100133.47
2023-04-16T16:28:43.892Z,100133.56
2023-04-16T16:31:12.226Z,100129.34
2023-04-16T16:33:40.480Z,100135.34
2023-04-16T16:36:10.929Z,100126.81
2023-04-16T16:38:38.004Z,100138.88
2023-04-16T16:41:04.580Z,100130.97
2023-04-16T16:43:31.453Z,100141.22
2023-04-16T16:45:58.030Z,100142.16
2023-04-16T16:48:24.701Z,100148.25
2023-04-16T16:50:51.211Z,100145.72
2023-04-16T16:53:17.735Z,100149.13
2023-04-16T16:55:44.269Z,100153.38
2023-04-16T16:58:11.243Z,100156.84
2023-04-16T17:00:38.067Z,100155.91
2023-04-16T17:03:04.775Z,100154.97
2023-04-16T17:05:31.655Z,100147.06
2023-04-16T17:07:58.672Z,100161.53
2023-04-16T17:10:25.408Z,100164.19
2023-04-16T17:12:52.147Z,100171.16
2023-04-16T17:15:21.449Z,100173.63
2023-04-16T17:17:48.750Z,100173.38
2023-04-16T17:20:15.716Z,100178.50
2023-04-16T17:22:42.746Z,100181.06
2023-04-16T17:25:10.178Z,100172.47
2023-04-16T17:27:36.807Z,100176.75
2023-04-16T17:30:05.361Z,100180.19
2023-04-16T17:32:32.865Z,100181.84
2023-04-16T17:35:01.057Z,100181.84
2023-04-16T17:37:27.797Z,100181.78
2023-04-16T17:39:54.387Z,100185.06
2023-04-16T17:42:21.071Z,100186.91
2023-04-16T17:44:47.798Z,100173.09
2023-04-16T17:47:14.393Z,100182.50
2023-04-16T17:49:40.980Z,100184.28
2023-04-16T17:52:07.512Z,100192.81
2023-04-16T17:54:34.076Z,100189.28
2023-04-16T17:57:00.639Z,100189.38
2023-04-16T17:59:27.452Z,100197.09
2023-04-16T18:01:54.899Z,100197.13
2023-04-16T18:04:21.723Z,100191.97
2023-04-16T18:06:48.489Z,100199.66
2023-04-16T18:09:15.547Z,100197.06
2023-04-16T18:11:42.124Z,100203.91
2023-04-16T18:14:09.868Z,100208.91
2023-04-16T18:16:36.814Z,100213.28
2023-04-16T18:19:03.363Z,100209.75
2023-04-16T18:21:30.393Z,100212.41
2023-04-16T18:23:57.597Z,100212.44
2023-04-16T18:26:25.314Z,100214.97
2023-04-16T18:28:51.954Z,100219.19
2023-04-16T18:31:21.179Z,100219.03
2023-04-16T18:33:55.595Z,100217.41
2023-04-16T18:36:23.769Z,100219.97
2023-04-16T18:39:00.822Z,100217.41
2023-04-16T18:41:28.734Z,100220.84
2023-04-16T18:43:55.364Z,100211.38
2023-04-16T18:46:22.044Z,100214.78
2023-04-16T18:48:48.692Z,100207.94
2023-04-16T18:51:16.576Z,100212.22
2023-04-16T18:53:44.381Z,100220.78
2023-04-16T18:56:11.664Z,100220.78
2023-04-16T18:58:38.313Z,100215.63
2023-04-16T19:01:07.751Z,100213.88
2023-04-16T19:03:34.668Z,100207.03
2023-04-16T19:06:01.638Z,100211.25
2023-04-16T19:08:28.231Z,100215.63
2023-04-16T19:10:54.805Z,100202.66
2023-04-16T19:13:21.376Z,100213.88
2023-04-16T19:15:47.991Z,100209.59
2023-04-16T19:18:14.682Z,100207.91
2023-04-16T19:20:41.264Z,100208.78
2023-04-16T19:23:09.184Z,100212.22
2023-04-16T19:25:39.269Z,100207.06
2023-04-16T19:28:05.836Z,100205.38
2023-04-16T19:30:32.443Z,100207.94
2023-04-16T19:32:59.080Z,100207.13
2023-04-16T19:35:25.772Z,100199.41
2023-04-16T19:37:52.344Z,100206.25
2023-04-16T19:40:19.176Z,100201.97
2023-04-16T19:42:45.834Z,100195.81
2023-04-16T19:45:12.377Z,100207.91
2023-04-16T19:47:39.121Z,100200.16
2023-04-16T19:50:06.468Z,100201.91
2023-04-16T19:52:38.663Z,100201.09
2023-04-16T19:55:06.620Z,100195.91
2023-04-16T19:57:33.306Z,100193.34
2023-04-16T20:00:00.144Z,100190.78
2023-04-16T20:02:26.974Z,100187.31
2023-04-16T20:04:53.796Z,100177.06
2023-04-16T20:07:20.580Z,100176.97
2023-04-16T20:09:47.378Z,100175.34
2023-04-16T20:12:14.410Z,100176.97
2023-04-16T20:14:41.899Z,100182.09
2023-04-16T20:17:10.060Z,100179.50
2023-04-16T20:19:49.526Z,100179.53
2023-04-16T20:22:18.345Z,100185.47
2023-04-16T20:24:47.875Z,100185.47
2023-04-16T20:27:15.336Z,100182.00
2023-04-16T20:29:42.477Z,100189.72
2023-04-16T20:32:09.158Z,100188.88
2023-04-16T20:34:36.694Z,100190.59
2023-04-16T20:37:06.304Z,100185.47
2023-04-16T20:39:40.035Z,100185.41
2023-04-16T20:42:10.371Z,100182.00
2023-04-16T20:44:40.768Z,100176.78
2023-04-16T20:47:08.596Z,100175.13
2023-04-16T20:49:35.217Z,100174.16
2023-04-16T20:52:02.740Z,100176.88
2023-04-16T20:54:30.117Z,100174.13
2023-04-16T20:56:57.458Z,100178.53
2023-04-16T20:59:24.546Z,100182.81
2023-04-16T21:01:52.303Z,100169.91
2023-04-16T21:04:19.125Z,100175.84
2023-04-16T21:06:45.775Z,100176.00
2023-04-16T21:09:13.174Z,100172.47
2023-04-16T21:11:39.923Z,100179.38
2023-04-16T21:14:06.788Z,100168.19
2023-04-16T21:16:33.452Z,100175.03
2023-04-16T21:19:00.095Z,100180.22
2023-04-16T21:21:27.460Z,100178.53
2023-04-16T21:23:54.046Z,100169.13
2023-04-16T21:26:20.964Z,100157.84
2023-04-16T21:28:47.588Z,100160.53
2023-04-16T21:31:14.232Z,100158.78
2023-04-16T21:33:41.037Z,100156.97
2023-04-16T21:36:07.870Z,100162.25
2023-04-16T21:38:34.475Z,100155.34
2023-04-16T21:41:01.914Z,100158.78
2023-04-16T21:43:30.576Z,100154.50
2023-04-16T21:45:57.254Z,100154.50
2023-04-16T21:48:24.362Z,100148.44
2023-04-16T21:50:58.201Z,100156.13
2023-04-16T21:53:25.985Z,100155.25
2023-04-16T21:55:52.524Z,100154.50
2023-04-16T21:58:19.121Z,100156.16
2023-04-16T22:00:45.743Z,100153.59
2023-04-16T22:03:12.439Z,100149.38
2023-04-16T22:05:39.251Z,100143.28
2023-04-16T22:08:23.440Z,100140.72
2023-04-16T22:10:51.191Z,100133.13
2023-04-16T22:13:17.994Z,100138.25
2023-04-16T22:15:44.578Z,100135.66
2023-04-16T22:18:11.473Z,100137.28
2023-04-16T22:20:39.003Z,100133.84
2023-04-16T22:23:06.535Z,100140.75
2023-04-16T22:25:33.491Z,100138.94
2023-04-16T22:28:01.532Z,100138.00
2023-04-16T22:30:28.149Z,100127.44
2023-04-16T22:32:54.809Z,100135.34
2023-04-16T22:35:21.550Z,100126.81
2023-04-16T22:37:48.060Z,100128.59
2023-04-16T22:40:14.953Z,100124.97
2023-04-16T22:42:41.601Z,100131.97
2023-04-16T22:45:08.806Z,100127.69
2023-04-16T22:47:35.386Z,100125.91
2023-04-16T22:50:02.068Z,100124.31
2023-04-16T22:52:28.639Z,100117.38
2023-04-16T22:54:55.200Z,100126.03
2023-04-16T22:57:24.801Z,100119.19
2023-04-16T22:59:52.338Z,100119.22
2023-04-16T23:02:19.547Z,100118.31
2023-04-16T23:04:47.798Z,100119.19
2023-04-16T23:07:15.541Z,100114.91
2023-04-16T23:09:42.462Z,100121.69
2023-04-16T23:12:09.166Z,100113.25
2023-04-16T23:14:36.954Z,100115.81
2023-04-16T23:17:03.720Z,100114.03
2023-04-16T23:19:31.245Z,100095.16
2023-04-16T23:21:58.080Z,100101.19
2023-04-16T23:24:24.674Z,100097.72
2023-04-16T23:26:52.498Z,100088.31
2023-04-16T23:29:20.264Z,100091.81
2023-04-16T23:31:46.898Z,100085.66
2023-04-16T23:34:13.607Z,100084.81
2023-04-16T23:36:40.748Z,100092.47
2023-04-16T23:39:07.396Z,100095.06
2023-04-16T23:41:34.385Z,100091.63
2023-04-16T23:44:01.023Z,100089.06
2023-04-16T23:46:27.692Z,100088.25
2023-04-16T23:48:55.429Z,100081.38
2023-04-16T23:51:22.273Z,100081.41
2023-04-16T23:53:48.838Z,100085.63
2023-04-16T23:56:16.345Z,100072.63
2023-04-16T23:58:42.937Z,100075.38
